Time;durP1;ratioP1;P1;durP2;ratioP2;P2;SDS_P1;SDS_P2;PMS_P1;PMS_P2;Temp;Humidity;BMP_temperature;BMP_pressure;BME280_temperature;BME280_humidity;BME280_pressure;Samples;Min_cycle;Max_cycle;Signal;HPM_P1;HPM_P2
2022/10/12 00:00:20;;;;;;;6.15;3.78;;;;;;;4.31;100.00;102506.09;5055480;28;20040;-70
2022/10/12 00:02:45;;;;;;;11.15;4.43;;;;;;;4.39;100.00;102501.63;5057536;28;20473;-70
2022/10/12 00:05:11;;;;;;;6.40;3.95;;;;;;;4.13;100.00;102488.69;5048920;28;20037;-71
2022/10/12 00:07:36;;;;;;;10.73;3.00;;;;;;;3.74;100.00;102511.03;5064741;28;20036;-71
2022/10/12 00:10:02;;;;;;;8.10;3.58;;;;;;;4.02;100.00;102498.50;5058138;28;20040;-70
2022/10/12 00:12:28;;;;;;;10.98;4.03;;;;;;;4.17;100.00;102498.34;5058114;28;20500;-70
2022/10/12 00:14:53;;;;;;;18.25;4.68;;;;;;;4.14;100.00;102495.72;5039370;28;20048;-70
2022/10/12 00:17:18;;;;;;;9.35;3.50;;;;;;;4.01;100.00;102494.06;5053356;28;20032;-70
2022/10/12 00:19:44;;;;;;;8.07;3.42;;;;;;;4.02;100.00;102496.72;5060189;28;20055;-69
2022/10/12 00:22:09;;;;;;;5.55;3.45;;;;;;;4.13;100.00;102500.13;5060773;28;20040;-70
2022/10/12 00:24:35;;;;;;;6.75;4.20;;;;;;;4.11;100.00;102499.25;5056182;28;20029;-70
2022/10/12 00:27:00;;;;;;;5.40;3.28;;;;;;;4.23;100.00;102498.28;5059605;28;20563;-69
2022/10/12 00:29:26;;;;;;;17.83;4.30;;;;;;;4.13;100.00;102493.97;5039860;28;20040;-71
2022/10/12 00:31:51;;;;;;;6.35;3.53;;;;;;;4.09;100.00;102498.41;5055502;28;20048;-69
2022/10/12 00:34:17;;;;;;;10.30;4.53;;;;;;;4.30;100.00;102496.44;5056980;28;20071;-70
2022/10/12 00:36:42;;;;;;;9.77;4.25;;;;;;;4.25;100.00;102495.59;5036931;28;20037;-71
2022/10/12 00:39:09;;;;;;;7.82;4.05;;;;;;;4.19;100.00;102503.59;5037501;28;20073;-70
2022/10/12 00:41:38;;;;;;;3.22;2.90;;;;;;;4.13;100.00;102501.88;5059959;28;20041;-70
2022/10/12 00:44:38;;;;;;;7.05;3.20;;;;;;;4.16;100.00;102496.56;5054726;28;20040;-70
2022/10/12 00:47:14;;;;;;;8.15;4.10;;;;;;;4.20;100.00;102495.66;5058004;28;20040;-70
2022/10/12 00:49:41;;;;;;;7.65;3.97;;;;;;;4.43;100.00;102499.81;5035928;28;20045;-69
2022/10/12 00:52:10;;;;;;;7.75;3.80;;;;;;;4.47;100.00;102493.59;5054329;28;20047;-71
2022/10/12 00:54:40;;;;;;;9.85;4.22;;;;;;;4.38;100.00;102494.59;5054720;28;20040;-70
2022/10/12 00:57:08;;;;;;;8.05;3.38;;;;;;;4.13;100.00;102499.25;5059619;28;20108;-69
2022/10/12 00:59:42;;;;;;;8.98;3.25;;;;;;;3.95;100.00;102494.13;5059744;28;20134;-70
2022/10/12 01:02:08;;;;;;;7.18;3.53;;;;;;;4.01;100.00;102497.59;5059001;28;20054;-70
2022/10/12 01:04:34;;;;;;;9.10;5.18;;;;;;;4.01;100.00;102499.34;5055403;28;20481;-69
2022/10/12 01:07:00;;;;;;;6.53;3.95;;;;;;;4.05;100.00;102494.03;5041484;28;20097;-70
2022/10/12 01:09:26;;;;;;;9.85;3.95;;;;;;;3.93;100.00;102499.44;5057252;28;20029;-70
2022/10/12 01:11:52;;;;;;;6.65;3.83;;;;;;;3.90;100.00;102489.78;5058456;28;20083;-70
2022/10/12 01:14:18;;;;;;;11.52;4.28;;;;;;;3.98;100.00;102495.00;5040878;28;20455;-68
2022/10/12 01:17:25;;;;;;;6.75;3.75;;;;;;;4.01;100.00;102492.31;5059941;28;20039;-70
2022/10/12 01:20:08;;;;;;;8.45;4.38;;;;;;;4.08;100.00;102496.66;5045258;28;20061;-70
2022/10/12 01:22:44;;;;;;;17.60;4.88;;;;;;;4.16;100.00;102486.88;5054458;28;20074;-69
2022/10/12 01:25:12;;;;;;;11.77;4.75;;;;;;;4.20;100.00;102482.44;5054596;28;20071;-70
2022/10/12 01:27:47;;;;;;;8.55;5.10;;;;;;;4.25;100.00;102482.41;5060030;28;20043;-71
2022/10/12 01:30:21;;;;;;;10.00;4.72;;;;;;;4.22;100.00;102475.41;5057447;28;20045;-70
2022/10/12 01:32:55;;;;;;;13.60;6.20;;;;;;;4.19;100.00;102483.34;5050006;28;20032;-69
2022/10/12 01:35:49;;;;;;;16.83;5.60;;;;;;;4.20;100.00;102482.44;5055231;28;20032;-70
2022/10/12 01:38:33;;;;;;;9.15;4.43;;;;;;;4.10;100.00;102479.03;5059711;28;20036;-70
2022/10/12 01:41:06;;;;;;;8.98;4.28;;;;;;;4.01;100.00;102480.88;5053968;28;20128;-69
2022/10/12 01:43:38;;;;;;;9.40;3.97;;;;;;;3.96;100.00;102475.63;5060157;28;20773;-71
2022/10/12 01:46:27;;;;;;;7.43;4.67;;;;;;;4.06;100.00;102468.50;5055986;28;20041;-69
2022/10/12 01:48:56;;;;;;;12.82;5.38;;;;;;;4.12;100.00;102471.97;5045944;28;20486;-70
2022/10/12 01:51:50;;;;;;;9.85;4.85;;;;;;;4.16;100.00;102465.75;5041100;28;20037;-68
2022/10/12 01:54:53;;;;;;;12.98;5.38;;;;;;;4.20;100.00;102455.16;5059692;28;20077;-70
2022/10/12 01:57:27;;;;;;;9.07;4.55;;;;;;;4.21;100.00;102462.19;5028437;28;20053;-69
2022/10/12 02:00:05;;;;;;;10.63;4.38;;;;;;;4.14;100.00;102451.72;5053808;28;20036;-70
2022/10/12 02:02:49;;;;;;;8.23;4.47;;;;;;;4.13;100.00;102449.09;5038206;28;20784;-70
2022/10/12 02:05:48;;;;;;;10.10;5.35;;;;;;;4.12;100.00;102450.00;5058766;28;20043;-71
2022/10/12 02:08:22;;;;;;;5.65;3.67;;;;;;;3.98;100.00;102447.50;5055213;28;20460;-71
2022/10/12 02:10:51;;;;;;;9.80;3.72;;;;;;;3.97;100.00;102447.50;5054239;28;20606;-70
2022/10/12 02:13:19;;;;;;;9.30;4.10;;;;;;;3.96;100.00;102443.09;5055361;28;20044;-70
2022/10/12 02:15:47;;;;;;;6.63;3.67;;;;;;;3.92;100.00;102441.41;5059688;28;20036;-70
2022/10/12 02:18:16;;;;;;;6.20;3.58;;;;;;;3.89;100.00;102437.03;5042471;28;20058;-69
2022/10/12 02:20:45;;;;;;;8.00;4.10;;;;;;;4.00;100.00;102436.91;5039781;28;20037;-70
2022/10/12 02:23:12;;;;;;;11.38;5.45;;;;;;;4.02;100.00;102438.66;5061248;28;20397;-70
2022/10/12 02:25:38;;;;;;;5.75;4.35;;;;;;;4.12;100.00;102437.66;5060159;28;20094;-70
2022/10/12 02:28:12;;;;;;;12.88;4.85;;;;;;;4.11;100.00;102430.63;5062869;28;20823;-71
2022/10/12 02:30:46;;;;;;;9.90;5.30;;;;;;;4.08;100.00;102432.44;5039329;28;20059;-69
2022/10/12 02:33:41;;;;;;;12.82;5.80;;;;;;;3.89;100.00;102426.47;5062150;28;20033;-70
2022/10/12 02:36:22;;;;;;;10.30;3.92;;;;;;;3.88;100.00;102428.22;5058311;28;20040;-71
2022/10/12 02:39:08;;;;;;;8.27;4.30;;;;;;;3.86;100.00;102424.72;5062291;28;20032;-70
2022/10/12 02:41:48;;;;;;;8.68;4.25;;;;;;;3.83;100.00;102419.50;5055610;28;20421;-69
2022/10/12 02:44:19;;;;;;;8.95;4.70;;;;;;;3.84;100.00;102426.50;5039434;28;20116;-70
2022/10/12 02:46:47;;;;;;;21.38;5.65;;;;;;;3.86;100.00;102415.94;5058200;28;20142;-69
2022/10/12 02:49:14;;;;;;;12.02;6.80;;;;;;;3.79;100.00;102412.47;5036965;28;20131;-69
2022/10/12 02:51:42;;;;;;;10.70;6.15;;;;;;;3.83;100.00;102418.63;5062909;28;20028;-70
2022/10/12 02:54:08;;;;;;;13.93;6.40;;;;;;;3.82;100.00;102417.75;5062993;28;20064;-69
2022/10/12 02:56:33;;;;;;;16.60;6.88;;;;;;;3.85;100.00;102419.47;5054653;28;20072;-70
2022/10/12 02:58:59;;;;;;;11.45;5.70;;;;;;;3.79;100.00;102415.13;5062784;28;20044;-69
2022/10/12 03:01:24;;;;;;;13.10;6.47;;;;;;;3.76;100.00;102409.88;5044338;28;20025;-70
2022/10/12 03:03:49;;;;;;;11.00;5.45;;;;;;;3.70;100.00;102412.56;5058744;28;20037;-70
2022/10/12 03:06:15;;;;;;;10.93;6.00;;;;;;;3.62;100.00;102415.31;5042263;28;20074;-69
2022/10/12 03:08:40;;;;;;;8.73;4.80;;;;;;;3.59;100.00;102417.94;5061980;28;20028;-70
2022/10/12 03:11:10;;;;;;;7.47;4.03;;;;;;;3.47;100.00;102417.19;5025103;28;20508;-69
2022/10/12 03:13:36;;;;;;;7.18;4.20;;;;;;;3.53;100.00;102406.59;5059904;28;20817;-70
2022/10/12 03:16:08;;;;;;;7.72;3.88;;;;;;;3.49;100.00;102411.00;5044228;28;20053;-70
2022/10/12 03:18:34;;;;;;;9.93;5.00;;;;;;;3.51;100.00;102411.84;5058784;28;20091;-69
2022/10/12 03:20:59;;;;;;;10.60;5.30;;;;;;;3.54;100.00;102405.69;5061465;28;20025;-70
2022/10/12 03:23:25;;;;;;;5.38;4.45;;;;;;;3.62;100.00;102409.16;5052995;28;20037;-70
2022/10/12 03:25:51;;;;;;;8.00;5.53;;;;;;;3.72;100.00;102404.66;5060329;28;20067;-70
2022/10/12 03:28:16;;;;;;;6.88;4.38;;;;;;;3.75;100.00;102404.63;5058142;28;20138;-69
2022/10/12 03:30:42;;;;;;;16.92;8.02;;;;;;;3.81;100.00;102409.81;5041899;28;20685;-70
2022/10/12 03:33:08;;;;;;;16.20;7.82;;;;;;;3.82;100.00;102409.81;5059199;28;20564;-69
2022/10/12 03:35:33;;;;;;;13.27;6.85;;;;;;;3.80;100.00;102405.44;5038630;28;20186;-70
2022/10/12 03:37:59;;;;;;;13.05;7.43;;;;;;;3.49;100.00;102413.66;5055498;28;20045;-71
2022/10/12 03:40:24;;;;;;;17.02;7.93;;;;;;;3.67;100.00;102401.19;5056988;28;20044;-69
2022/10/12 03:42:50;;;;;;;14.20;7.43;;;;;;;3.63;100.00;102395.94;5056320;28;20036;-70
2022/10/12 03:45:15;;;;;;;10.73;6.47;;;;;;;3.47;100.00;102396.09;5061161;28;20091;-70
2022/10/12 03:47:41;;;;;;;11.18;6.30;;;;;;;3.26;100.00;102397.13;5054197;28;20056;-70
2022/10/12 03:50:07;;;;;;;14.82;6.68;;;;;;;3.33;100.00;102397.09;5054118;28;20051;-71
2022/10/12 03:52:32;;;;;;;12.68;6.63;;;;;;;3.34;100.00;102397.97;5056043;28;20032;-71
2022/10/12 03:54:58;;;;;;;11.10;5.82;;;;;;;3.25;100.00;102398.03;5056491;28;20056;-69
2022/10/12 03:57:23;;;;;;;17.73;7.28;;;;;;;3.25;100.00;102393.63;5043760;28;20033;-70
2022/10/12 03:59:48;;;;;;;12.98;6.53;;;;;;;3.35;100.00;102400.56;5057613;28;20564;-71
2022/10/12 04:02:14;;;;;;;17.52;7.10;;;;;;;3.30;100.00;102393.59;5059563;28;20040;-71
2022/10/12 04:04:39;;;;;;;14.48;6.63;;;;;;;3.02;100.00;102392.94;5059838;28;20043;-71
2022/10/12 04:07:05;;;;;;;10.02;4.90;;;;;;;2.97;100.00;102390.34;5060646;28;20050;-71
2022/10/12 04:09:31;;;;;;;9.10;5.68;;;;;;;2.98;100.00;102391.22;5058146;28;20055;-71
2022/10/12 04:11:56;;;;;;;12.27;6.35;;;;;;;2.96;100.00;102382.44;5054505;28;20041;-71
2022/10/12 04:14:22;;;;;;;9.60;6.10;;;;;;;2.92;100.00;102392.13;5059388;28;20043;-70
2022/10/12 04:16:47;;;;;;;13.30;6.93;;;;;;;2.92;100.00;102393.91;5043061;28;20032;-71
2022/10/12 04:19:13;;;;;;;13.95;6.88;;;;;;;3.02;100.00;102383.28;5059897;28;20061;-69
2022/10/12 04:21:39;;;;;;;14.38;7.05;;;;;;;3.00;100.00;102382.41;5061140;28;20485;-68
2022/10/12 04:24:04;;;;;;;17.33;6.80;;;;;;;2.95;100.00;102381.56;5057932;28;20576;-71
2022/10/12 04:26:30;;;;;;;11.50;6.05;;;;;;;2.77;100.00;102379.94;5060728;28;20047;-71
2022/10/12 04:28:55;;;;;;;11.90;5.90;;;;;;;2.56;100.00;102386.22;5037347;28;20040;-71
2022/10/12 04:31:21;;;;;;;12.85;6.25;;;;;;;2.59;100.00;102383.53;5060089;28;20452;-70
2022/10/12 04:33:49;;;;;;;10.95;5.63;;;;;;;2.69;100.00;102376.47;5041271;28;20041;-71
2022/10/12 04:36:14;;;;;;;9.02;5.47;;;;;;;2.69;100.00;102373.81;5054993;28;20044;-71
2022/10/12 04:38:40;;;;;;;11.07;5.90;;;;;;;2.72;100.00;102381.72;5042545;28;20028;-71
2022/10/12 04:41:05;;;;;;;11.77;6.18;;;;;;;2.66;100.00;102380.88;5052539;28;20556;-71
2022/10/12 04:43:31;;;;;;;10.63;6.15;;;;;;;2.41;100.00;102382.75;5057695;28;20040;-71
2022/10/12 04:45:58;;;;;;;33.88;8.50;;;;;;;2.49;100.00;102383.59;5058353;28;20041;-69
2022/10/12 04:48:25;;;;;;;8.90;6.50;;;;;;;2.43;100.00;102388.91;5055661;28;20040;-69
2022/10/12 04:50:51;;;;;;;8.90;6.32;;;;;;;2.42;100.00;102385.41;5058991;28;20033;-70
2022/10/12 04:53:17;;;;;;;10.13;6.55;;;;;;;2.39;100.00;102384.53;5052685;28;20056;-70
2022/10/12 04:55:42;;;;;;;21.67;7.68;;;;;;;2.41;100.00;102388.00;5057659;28;20095;-68
2022/10/12 04:58:07;;;;;;;11.70;7.05;;;;;;;2.46;100.00;102384.50;5039247;28;20044;-70
2022/10/12 05:00:33;;;;;;;10.90;6.97;;;;;;;2.45;100.00;102388.00;5060038;28;20032;-71
2022/10/12 05:02:58;;;;;;;13.02;7.22;;;;;;;2.57;100.00;102376.53;5057773;28;20040;-70
2022/10/12 05:05:24;;;;;;;30.52;8.95;;;;;;;2.51;100.00;102379.19;5059221;28;20048;-72
2022/10/12 05:07:50;;;;;;;11.63;7.32;;;;;;;2.46;100.00;102383.59;5039475;28;20032;-70
2022/10/12 05:10:16;;;;;;;11.38;7.25;;;;;;;2.32;100.00;102389.81;5058261;28;20040;-70
2022/10/12 05:12:42;;;;;;;16.45;7.38;;;;;;;1.98;100.00;102393.44;5058841;28;20048;-71
2022/10/12 05:15:08;;;;;;;85.75;9.13;;;;;;;2.10;100.00;102387.28;5056432;28;20791;-71
2022/10/12 05:17:34;;;;;;;14.50;6.65;;;;;;;1.99;100.00;102390.81;5053784;28;20047;-70
2022/10/12 05:19:59;;;;;;;17.38;6.43;;;;;;;2.11;100.00;102389.91;5050292;28;20048;-68
2022/10/12 05:22:25;;;;;;;13.57;7.45;;;;;;;2.26;100.00;102383.69;5054908;28;20036;-69
2022/10/12 05:24:50;;;;;;;19.13;8.10;;;;;;;2.33;100.00;102383.66;5059239;28;20048;-70
2022/10/12 05:27:15;;;;;;;14.52;7.50;;;;;;;2.26;100.00;102386.31;5059354;28;20420;-70
2022/10/12 05:29:41;;;;;;;16.33;7.05;;;;;;;2.41;100.00;102382.75;5053927;28;20087;-70
2022/10/12 05:32:06;;;;;;;24.85;8.90;;;;;;;2.45;100.00;102381.84;5055618;28;20488;-71
2022/10/12 05:34:32;;;;;;;26.73;8.48;;;;;;;2.45;100.00;102381.84;5058590;28;20405;-70
2022/10/12 05:36:58;;;;;;;15.43;6.97;;;;;;;2.37;100.00;102379.28;5056800;28;20044;-69
2022/10/12 05:39:23;;;;;;;22.20;7.43;;;;;;;2.29;100.00;102381.06;5055933;28;20056;-70
2022/10/12 05:41:50;;;;;;;19.08;7.65;;;;;;;2.21;100.00;102374.94;5056499;28;20049;-71
2022/10/12 05:44:15;;;;;;;13.63;6.35;;;;;;;2.09;100.00;102373.25;5056322;28;20036;-70
2022/10/12 05:46:41;;;;;;;14.20;6.13;;;;;;;2.13;100.00;102377.63;5057304;28;20568;-70
2022/10/12 05:49:06;;;;;;;12.65;6.30;;;;;;;2.16;100.00;102376.72;5042410;28;20037;-70
2022/10/12 05:51:32;;;;;;;11.77;5.95;;;;;;;2.23;100.00;102367.94;5059259;28;20104;-71
2022/10/12 05:53:58;;;;;;;19.15;5.97;;;;;;;2.23;100.00;102379.34;5035268;28;20041;-70
2022/10/12 05:56:23;;;;;;;12.45;6.03;;;;;;;2.16;100.00;102376.72;5054661;28;20037;-69
2022/10/12 05:58:49;;;;;;;14.77;5.90;;;;;;;2.16;100.00;102380.25;5046243;28;20069;-69
2022/10/12 06:01:15;;;;;;;11.57;5.68;;;;;;;2.13;100.00;102380.25;5062312;28;20048;-69
2022/10/12 06:03:40;;;;;;;10.30;6.28;;;;;;;2.06;100.00;102389.94;5056813;28;20048;-70
2022/10/12 06:06:06;;;;;;;18.85;6.97;;;;;;;2.14;100.00;102381.13;5062551;28;20090;-70
2022/10/12 06:08:33;;;;;;;25.63;7.35;;;;;;;2.22;100.00;102388.13;5063476;28;20129;-70
2022/10/12 06:10:58;;;;;;;15.68;7.15;;;;;;;2.32;100.00;102391.59;5043833;28;20115;-70
2022/10/12 06:13:24;;;;;;;8.57;5.95;;;;;;;2.46;100.00;102395.03;5053988;28;20039;-70
2022/10/12 06:15:50;;;;;;;11.25;6.95;;;;;;;2.60;100.00;102387.03;5022160;28;20032;-69
2022/10/12 06:18:17;;;;;;;19.25;7.03;;;;;;;2.73;100.00;102372.94;5039582;28;20039;-70
2022/10/12 06:20:51;;;;;;;7.65;6.03;;;;;;;2.83;100.00;102386.91;5061586;28;20636;-70
2022/10/12 06:23:18;;;;;;;10.57;6.15;;;;;;;2.95;100.00;102378.06;5059777;28;20044;-70
2022/10/12 06:25:48;;;;;;;14.88;6.35;;;;;;;3.10;100.00;102376.16;5062628;28;20032;-70
2022/10/12 06:28:15;;;;;;;8.32;6.00;;;;;;;3.42;100.00;102384.72;5058007;28;20124;-71
2022/10/12 06:30:41;;;;;;;8.45;5.53;;;;;;;3.42;100.00;102382.09;5053626;28;20488;-70
2022/10/12 06:33:06;;;;;;;8.70;5.70;;;;;;;3.41;100.00;102375.91;5041362;28;20090;-70
2022/10/12 06:35:33;;;;;;;10.40;5.82;;;;;;;3.51;100.00;102371.44;5061369;28;20049;-70
2022/10/12 06:37:58;;;;;;;7.95;5.63;;;;;;;3.69;100.00;102365.13;5062209;28;20068;-70
2022/10/12 06:40:24;;;;;;;11.55;5.97;;;;;;;4.00;100.00;102363.88;5057085;28;20287;-70
2022/10/12 06:42:50;;;;;;;10.15;6.15;;;;;;;4.22;100.00;102366.25;5061464;28;20044;-70
2022/10/12 06:45:15;;;;;;;9.52;5.85;;;;;;;4.36;100.00;102366.94;5062257;28;20086;-69
2022/10/12 06:47:41;;;;;;;7.03;5.10;;;;;;;4.64;100.00;102363.06;5043931;28;20079;-70
2022/10/12 06:50:07;;;;;;;10.95;6.70;;;;;;;4.89;100.00;102354.75;5061264;28;20028;-71
2022/10/12 06:52:33;;;;;;;8.10;5.35;;;;;;;5.19;100.00;102353.41;5043799;28;20037;-70
2022/10/12 06:54:59;;;;;;;7.35;5.82;;;;;;;5.25;100.00;102355.06;5059039;28;20037;-69
2022/10/12 06:57:24;;;;;;;8.93;4.85;;;;;;;5.05;100.00;102347.47;5043482;28;20087;-70
2022/10/12 06:59:49;;;;;;;7.13;5.07;;;;;;;4.96;100.00;102353.75;5061429;28;20040;-70
2022/10/12 07:02:15;;;;;;;8.45;5.97;;;;;;;5.13;100.00;102353.50;5048570;28;20028;-70
2022/10/12 07:04:40;;;;;;;10.10;5.40;;;;;;;4.92;100.00;102362.66;5061562;28;20123;-70
2022/10/12 07:07:06;;;;;;;13.30;7.53;;;;;;;4.94;100.00;102363.50;5062663;28;20052;-69
2022/10/12 07:09:31;;;;;;;10.02;5.78;;;;;;;5.13;100.00;102362.31;5056925;28;20040;-70
2022/10/12 07:11:57;;;;;;;9.88;4.90;;;;;;;5.16;100.00;102362.25;5062067;28;20036;-71
2022/10/12 07:14:22;;;;;;;9.98;5.70;;;;;;;5.34;100.00;102360.22;5045466;28;20032;-70
2022/10/12 07:16:48;;;;;;;15.65;7.50;;;;;;;5.45;100.00;102368.81;5062927;28;20046;-69
2022/10/12 07:19:13;;;;;;;9.50;5.97;;;;;;;5.43;100.00;102371.50;5057230;28;20044;-69
2022/10/12 07:21:39;;;;;;;12.30;7.07;;;;;;;5.54;100.00;102367.78;5062274;28;20068;-71
2022/10/12 07:24:04;;;;;;;10.25;6.20;;;;;;;5.57;100.00;102367.72;5062370;28;20033;-71
2022/10/12 07:26:30;;;;;;;13.52;5.85;;;;;;;5.74;100.00;102367.44;5058552;28;20036;-70
2022/10/12 07:28:56;;;;;;;15.40;7.25;;;;;;;5.61;100.00;102365.00;5057582;28;20572;-70
2022/10/12 07:31:22;;;;;;;14.27;7.68;;;;;;;5.68;100.00;102361.34;5064318;28;20066;-71
2022/10/12 07:33:48;;;;;;;12.30;7.18;;;;;;;5.68;100.00;102361.34;5060451;28;20029;-69
2022/10/12 07:36:14;;;;;;;16.25;7.50;;;;;;;5.92;100.00;102352.09;5059342;28;20059;-70
2022/10/12 07:38:42;;;;;;;20.80;7.75;;;;;;;6.06;100.00;102356.25;5046008;28;20048;-69
2022/10/12 07:41:08;;;;;;;18.38;8.10;;;;;;;6.21;100.00;102345.31;5060917;28;20043;-70
2022/10/12 07:43:33;;;;;;;17.15;8.15;;;;;;;6.43;100.00;102351.06;5065310;28;20049;-69
2022/10/12 07:46:02;;;;;;;26.17;10.55;;;;;;;6.56;100.00;102349.84;5065429;28;20033;-70
2022/10/12 07:48:27;;;;;;;27.45;10.15;;;;;;;6.72;100.00;102353.03;5043257;28;20032;-71
2022/10/12 07:50:53;;;;;;;21.98;10.25;;;;;;;6.97;100.00;102343.59;5053056;28;20812;-71
2022/10/12 07:53:18;;;;;;;21.98;10.82;;;;;;;7.35;100.00;102344.44;5046834;28;20083;-70
2022/10/12 07:55:43;;;;;;;27.65;13.10;;;;;;;7.43;100.00;102349.53;5064936;28;20168;-70
2022/10/12 07:58:09;;;;;;;46.97;21.42;;;;;;;7.25;100.00;102342.91;5044932;28;20044;-69
2022/10/12 08:00:35;;;;;;;49.67;19.58;;;;;;;7.35;100.00;102347.09;5046528;28;20036;-70
2022/10/12 08:03:00;;;;;;;49.42;22.42;;;;;;;7.36;100.00;102340.84;5043999;28;20040;-70
2022/10/12 08:05:26;;;;;;;48.22;22.00;;;;;;;7.47;100.00;102348.53;5057991;28;20025;-70
2022/10/12 08:07:51;;;;;;;56.15;22.20;;;;;;;7.66;100.00;102335.66;5064717;28;20036;-70
2022/10/12 08:10:18;;;;;;;46.58;21.63;;;;;;;7.77;100.00;102338.88;5046008;28;20897;-70
2022/10/12 08:12:44;;;;;;;48.00;21.25;;;;;;;7.88;100.00;102346.53;5063432;28;20036;-70
2022/10/12 08:15:10;;;;;;;59.03;22.45;;;;;;;8.21;100.00;102347.38;5065125;28;20046;-70
2022/10/12 08:17:36;;;;;;;55.05;22.95;;;;;;;8.03;100.00;102348.75;5063989;28;20040;-70
2022/10/12 08:20:02;;;;;;;51.42;21.27;;;;;;;7.81;100.00;102337.88;5064009;28;20040;-70
2022/10/12 08:22:28;;;;;;;47.97;22.42;;;;;;;7.89;100.00;102346.53;5064192;28;20040;-69
2022/10/12 08:24:53;;;;;;;46.67;22.27;;;;;;;8.04;100.00;102351.41;5045894;28;20036;-70
2022/10/12 08:27:19;;;;;;;50.85;20.85;;;;;;;8.30;100.00;102341.78;5062630;28;20185;-70
2022/10/12 08:29:45;;;;;;;40.00;18.85;;;;;;;8.39;100.00;102341.56;5063205;28;20040;-69
2022/10/12 08:32:11;;;;;;;50.17;19.65;;;;;;;8.47;100.00;102342.19;5064825;28;20139;-70
2022/10/12 08:34:36;;;;;;;48.08;19.45;;;;;;;8.88;100.00;102353.31;5038491;28;20024;-70
2022/10/12 08:37:02;;;;;;;40.35;17.77;;;;;;;8.78;100.00;102344.75;5063516;28;20736;-70
2022/10/12 08:39:27;;;;;;;40.00;17.02;;;;;;;8.89;100.00;102352.41;5064993;28;20024;-70
2022/10/12 08:42:28;;;;;;;33.85;15.15;;;;;;;9.16;100.00;102353.28;5038830;28;20060;-71
2022/10/12 08:45:35;;;;;;;32.22;13.88;;;;;;;9.17;100.00;102348.84;5041358;28;20044;-70
2022/10/12 08:48:12;;;;;;;25.48;11.70;;;;;;;9.29;100.00;102353.75;5058859;28;20576;-69
2022/10/12 08:51:00;;;;;;;32.65;12.80;;;;;;;9.38;100.00;102348.09;5062389;28;20044;-69
2022/10/12 08:53:42;;;;;;;26.33;13.00;;;;;;;10.13;100.00;102345.41;5060982;28;20048;-69
2022/10/12 08:56:08;;;;;;;18.73;10.00;;;;;;;9.95;100.00;102340.78;5064279;28;20572;-69
2022/10/12 08:58:38;;;;;;;26.83;11.32;;;;;;;10.14;100.00;102336.53;5044197;28;20048;-69
2022/10/12 09:01:37;;;;;;;24.45;11.48;;;;;;;10.33;100.00;102339.38;5064254;28;20040;-69
2022/10/12 09:04:24;;;;;;;29.13;13.13;;;;;;;10.90;100.00;102343.34;5059931;28;20041;-68
2022/10/12 09:06:59;;;;;;;23.95;11.25;;;;;;;11.44;100.00;102341.09;5053281;28;20049;-69
2022/10/12 09:09:47;;;;;;;23.80;11.20;;;;;;;11.12;100.00;102344.19;5064266;28;20072;-69
2022/10/12 09:12:40;;;;;;;24.30;10.20;;;;;;;10.65;100.00;102345.28;5040468;28;20048;-69
2022/10/12 09:15:13;;;;;;;;;;;;;;;10.68;100.00;102340.66;5063771;28;20028;-68
2022/10/12 09:17:43;;;;;;;24.98;11.15;;;;;;;10.08;100.00;102339.38;5064553;28;19971;-68
2022/10/12 09:20:21;;;;;;;25.63;10.60;;;;;;;9.94;100.00;102345.25;5039629;28;20090;-70
2022/10/12 09:22:49;;;;;;;31.23;12.80;;;;;;;10.29;100.00;102343.97;5042756;28;20484;-70
2022/10/12 09:25:17;;;;;;;26.00;11.85;;;;;;;10.45;100.00;102352.25;5062955;28;20036;-70
2022/10/12 09:27:45;;;;;;;24.10;13.02;;;;;;;10.26;100.00;102349.41;5062099;28;20197;-71
2022/10/12 09:30:15;;;;;;;24.38;11.93;;;;;;;10.44;100.00;102337.19;5062590;28;20032;-69
2022/10/12 09:33:10;;;;;;;25.40;13.65;;;;;;;10.52;100.00;102337.72;5067200;28;20040;-69
2022/10/12 09:35:36;;;;;;;30.30;11.50;;;;;;;10.79;100.00;102343.78;5068506;28;20093;-69
2022/10/12 09:38:02;;;;;;;28.52;12.50;;;;;;;10.80;100.00;102347.31;5069363;28;20029;-69
2022/10/12 09:40:31;;;;;;;25.45;12.02;;;;;;;10.68;100.00;102343.31;5071149;28;20036;-69
2022/10/12 09:42:59;;;;;;;27.42;12.75;;;;;;;11.08;100.00;102333.72;5068435;28;20029;-69
2022/10/12 09:45:25;;;;;;;23.80;12.43;;;;;;;11.09;100.00;102338.09;5056831;28;20114;-71
2022/10/12 09:48:14;;;;;;;30.88;11.80;;;;;;;10.90;100.00;102343.34;5065785;28;20047;-69
2022/10/12 09:50:44;;;;;;;28.02;12.77;;;;;;;11.25;100.00;102339.22;5045725;28;20048;-70
2022/10/12 09:53:30;;;;;;;33.00;12.43;;;;;;;11.36;100.00;102341.44;5069072;28;20041;-70
2022/10/12 09:56:06;;;;;;;26.98;12.68;;;;;;;11.45;100.00;102335.72;5069844;28;20055;-70
2022/10/12 09:58:42;;;;;;;26.00;13.65;;;;;;;11.64;100.00;102328.59;5071279;28;20041;-69
2022/10/12 10:01:20;;;;;;;34.33;16.38;;;;;;;12.01;100.00;102336.84;5066521;28;20386;-69
2022/10/12 10:03:47;;;;;;;30.85;14.77;;;;;;;12.05;98.98;102328.63;5070026;28;20793;-69
2022/10/12 10:06:14;;;;;;;33.70;15.40;;;;;;;11.44;100.00;102323.25;5069354;28;20052;-70
2022/10/12 10:08:44;;;;;;;40.03;15.88;;;;;;;11.70;100.00;102316.81;5069418;28;20594;-71
2022/10/12 10:11:22;;;;;;;36.97;15.77;;;;;;;11.80;100.00;102320.81;5069858;28;20041;-70
2022/10/12 10:13:51;;;;;;;34.70;14.95;;;;;;;11.91;100.00;102329.22;5052691;28;20034;-69
2022/10/12 10:16:18;;;;;;;28.63;13.82;;;;;;;12.25;95.94;102318.78;5051405;28;20032;-70
2022/10/12 10:18:48;;;;;;;26.35;14.07;;;;;;;11.93;97.31;102324.66;5069693;28;20098;-70
2022/10/12 10:21:36;;;;;;;29.40;15.50;;;;;;;11.94;98.13;102322.88;5059488;28;20418;-70
2022/10/12 10:24:17;;;;;;;36.55;16.45;;;;;;;12.12;98.34;102326.53;5063462;28;20037;-70
2022/10/12 10:27:04;;;;;;;38.88;15.77;;;;;;;12.65;94.68;102318.66;5066113;28;20040;-69
2022/10/12 10:29:41;;;;;;;39.13;17.23;;;;;;;12.67;93.33;102314.06;5072905;28;20040;-69
2022/10/12 10:32:23;;;;;;;36.55;18.23;;;;;;;12.60;93.42;102312.66;5062836;28;20040;-68
2022/10/12 10:35:05;;;;;;;32.90;16.48;;;;;;;12.21;94.16;102304.69;5079670;28;20045;-68
2022/10/12 10:37:31;;;;;;;39.58;17.85;;;;;;;12.14;96.50;102296.06;5082729;28;20398;-69
2022/10/12 10:39:58;;;;;;;35.17;17.27;;;;;;;12.47;96.90;102294.56;5056508;28;20032;-69
2022/10/12 10:42:28;;;;;;;29.92;16.10;;;;;;;12.30;96.50;102293.56;5070224;28;20128;-69
2022/10/12 10:45:03;;;;;;;35.33;15.95;;;;;;;12.47;99.98;102290.09;5044168;28;20041;-70
2022/10/12 10:47:31;;;;;;;31.45;15.27;;;;;;;12.35;99.28;102288.88;5045894;28;20128;-69
2022/10/12 10:50:00;;;;;;;29.48;14.23;;;;;;;12.79;97.02;102284.97;5060366;28;20025;-69
2022/10/12 10:52:30;;;;;;;33.42;15.88;;;;;;;13.03;95.59;102286.41;5062045;28;20048;-68
2022/10/12 10:55:19;;;;;;;23.58;12.98;;;;;;;13.03;93.91;102280.19;5046322;28;20051;-69
2022/10/12 10:57:59;;;;;;;29.15;12.50;;;;;;;12.94;92.70;102279.72;5062636;28;20048;-69
2022/10/12 11:00:28;;;;;;;30.35;13.85;;;;;;;13.26;92.89;102284.44;5063502;28;20041;-69
2022/10/12 11:02:56;;;;;;;25.38;13.02;;;;;;;13.63;92.59;102278.00;5061288;28;20119;-68
2022/10/12 11:05:27;;;;;;;26.83;13.27;;;;;;;13.83;88.73;102280.47;5040007;28;20037;-69
2022/10/12 11:07:58;;;;;;;27.55;13.65;;;;;;;13.29;87.63;102271.72;5062052;28;20056;-70
2022/10/12 11:10:48;;;;;;;28.98;12.60;;;;;;;13.31;90.36;102269.84;5062431;28;20338;-70
2022/10/12 11:13:32;;;;;;;21.75;12.30;;;;;;;13.16;91.14;102270.59;5062045;28;20037;-69
2022/10/12 11:16:04;;;;;;;26.58;11.32;;;;;;;13.12;93.70;102269.03;5062834;28;20036;-70
2022/10/12 11:18:36;;;;;;;21.90;11.43;;;;;;;13.10;95.77;102262.88;5060740;28;20120;-70
2022/10/12 11:21:17;;;;;;;22.10;10.55;;;;;;;13.06;94.65;102277.38;5057969;28;20221;-69
2022/10/12 11:23:52;;;;;;;22.92;11.55;;;;;;;13.32;93.64;102260.00;5063450;28;20106;-70
2022/10/12 11:26:40;;;;;;;23.52;10.07;;;;;;;13.34;92.83;102261.63;5061721;28;20045;-70
2022/10/12 11:29:05;;;;;;;43.08;13.73;;;;;;;13.86;90.29;102248.16;5059601;28;20072;-70